sensor_id;sensor_type;location;lat;lon;timestamp;P1;durP1;ratioP1;P2;durP2;ratioP2
12383;SDS011;6256;63.808;20.336;2023-08-06T00:00:21;2.90;;;1.90;;
12383;SDS011;6256;63.808;20.336;2023-08-06T00:02:48;5.70;;;2.00;;
12383;SDS011;6256;63.808;20.336;2023-08-06T00:05:14;2.53;;;1.73;;
12383;SDS011;6256;63.808;20.336;2023-08-06T00:07:43;2.10;;;1.90;;
12383;SDS011;6256;63.808;20.336;2023-08-06T00:10:10;3.37;;;2.23;;
12383;SDS011;6256;63.808;20.336;2023-08-06T00:12:36;3.83;;;2.17;;
12383;SDS011;6256;63.808;20.336;2023-08-06T00:15:02;4.73;;;1.90;;
12383;SDS011;6256;63.808;20.336;2023-08-06T00:17:31;6.33;;;2.70;;
12383;SDS011;6256;63.808;20.336;2023-08-06T00:19:57;4.87;;;2.33;;
12383;SDS011;6256;63.808;20.336;2023-08-06T00:22:22;2.30;;;1.63;;
12383;SDS011;6256;63.808;20.336;2023-08-06T00:24:48;3.97;;;2.17;;
12383;SDS011;6256;63.808;20.336;2023-08-06T00:27:14;3.90;;;1.97;;
12383;SDS011;6256;63.808;20.336;2023-08-06T00:29:39;3.13;;;2.10;;
12383;SDS011;6256;63.808;20.336;2023-08-06T00:32:05;4.23;;;2.50;;
12383;SDS011;6256;63.808;20.336;2023-08-06T00:34:31;5.07;;;2.70;;
12383;SDS011;6256;63.808;20.336;2023-08-06T00:36:56;5.90;;;2.40;;
12383;SDS011;6256;63.808;20.336;2023-08-06T00:39:22;3.27;;;2.20;;
12383;SDS011;6256;63.808;20.336;2023-08-06T00:41:48;5.90;;;2.30;;
12383;SDS011;6256;63.808;20.336;2023-08-06T00:44:13;4.50;;;2.47;;
12383;SDS011;6256;63.808;20.336;2023-08-06T00:46:39;2.87;;;2.27;;
12383;SDS011;6256;63.808;20.336;2023-08-06T00:49:05;4.80;;;2.10;;
12383;SDS011;6256;63.808;20.336;2023-08-06T00:51:31;3.93;;;2.13;;
12383;SDS011;6256;63.808;20.336;2023-08-06T00:53:57;4.23;;;2.17;;
12383;SDS011;6256;63.808;20.336;2023-08-06T00:56:24;5.93;;;2.33;;
12383;SDS011;6256;63.808;20.336;2023-08-06T00:58:50;3.17;;;2.53;;
12383;SDS011;6256;63.808;20.336;2023-08-06T01:01:16;3.80;;;2.50;;
12383;SDS011;6256;63.808;20.336;2023-08-06T01:03:42;2.77;;;2.03;;
12383;SDS011;6256;63.808;20.336;2023-08-06T01:06:07;4.93;;;1.87;;
12383;SDS011;6256;63.808;20.336;2023-08-06T01:11:37;5.33;;;2.13;;
12383;SDS011;6256;63.808;20.336;2023-08-06T01:14:28;4.27;;;2.40;;
12383;SDS011;6256;63.808;20.336;2023-08-06T01:17:01;3.90;;;2.10;;
12383;SDS011;6256;63.808;20.336;2023-08-06T01:19:29;2.73;;;2.00;;
12383;SDS011;6256;63.808;20.336;2023-08-06T01:21:55;2.90;;;2.27;;
12383;SDS011;6256;63.808;20.336;2023-08-06T01:24:20;2.67;;;1.93;;
12383;SDS011;6256;63.808;20.336;2023-08-06T01:27:03;3.40;;;2.00;;
12383;SDS011;6256;63.808;20.336;2023-08-06T01:29:44;3.43;;;2.00;;
12383;SDS011;6256;63.808;20.336;2023-08-06T01:32:12;3.33;;;1.87;;
12383;SDS011;6256;63.808;20.336;2023-08-06T01:34:40;5.20;;;2.10;;
12383;SDS011;6256;63.808;20.336;2023-08-06T01:37:08;3.67;;;2.33;;
12383;SDS011;6256;63.808;20.336;2023-08-06T01:39:35;3.17;;;2.10;;
12383;SDS011;6256;63.808;20.336;2023-08-06T01:42:01;2.60;;;1.77;;
12383;SDS011;6256;63.808;20.336;2023-08-06T01:44:27;3.53;;;1.80;;
12383;SDS011;6256;63.808;20.336;2023-08-06T01:46:53;2.93;;;2.07;;
12383;SDS011;6256;63.808;20.336;2023-08-06T01:49:19;2.70;;;1.77;;
12383;SDS011;6256;63.808;20.336;2023-08-06T01:51:44;3.17;;;2.00;;
12383;SDS011;6256;63.808;20.336;2023-08-06T01:54:10;6.93;;;2.00;;
12383;SDS011;6256;63.808;20.336;2023-08-06T01:56:39;2.47;;;1.80;;
12383;SDS011;6256;63.808;20.336;2023-08-06T01:59:05;2.67;;;1.73;;
12383;SDS011;6256;63.808;20.336;2023-08-06T02:01:30;2.73;;;2.00;;
12383;SDS011;6256;63.808;20.336;2023-08-06T02:03:56;3.93;;;1.60;;
12383;SDS011;6256;63.808;20.336;2023-08-06T02:06:21;2.37;;;1.90;;
12383;SDS011;6256;63.808;20.336;2023-08-06T02:08:47;2.23;;;2.03;;
12383;SDS011;6256;63.808;20.336;2023-08-06T02:11:13;2.57;;;1.60;;
12383;SDS011;6256;63.808;20.336;2023-08-06T02:13:38;2.00;;;1.80;;
12383;SDS011;6256;63.808;20.336;2023-08-06T02:16:06;4.27;;;1.60;;
12383;SDS011;6256;63.808;20.336;2023-08-06T02:18:33;2.57;;;1.60;;
12383;SDS011;6256;63.808;20.336;2023-08-06T02:20:59;2.83;;;1.60;;
12383;SDS011;6256;63.808;20.336;2023-08-06T02:23:25;2.43;;;1.40;;
12383;SDS011;6256;63.808;20.336;2023-08-06T02:26:01;1.60;;;1.50;;
12383;SDS011;6256;63.808;20.336;2023-08-06T02:28:28;3.70;;;1.60;;
12383;SDS011;6256;63.808;20.336;2023-08-06T02:30:57;2.63;;;1.60;;
12383;SDS011;6256;63.808;20.336;2023-08-06T02:33:24;2.80;;;1.50;;
12383;SDS011;6256;63.808;20.336;2023-08-06T02:35:49;2.47;;;1.63;;
12383;SDS011;6256;63.808;20.336;2023-08-06T02:38:15;2.13;;;1.47;;
12383;SDS011;6256;63.808;20.336;2023-08-06T02:40:44;1.83;;;1.40;;
12383;SDS011;6256;63.808;20.336;2023-08-06T02:43:11;2.40;;;1.30;;
12383;SDS011;6256;63.808;20.336;2023-08-06T02:45:36;1.50;;;1.20;;
12383;SDS011;6256;63.808;20.336;2023-08-06T02:48:02;1.77;;;1.40;;
12383;SDS011;6256;63.808;20.336;2023-08-06T02:50:28;4.70;;;1.30;;
12383;SDS011;6256;63.808;20.336;2023-08-06T02:52:54;2.70;;;1.40;;
12383;SDS011;6256;63.808;20.336;2023-08-06T02:55:20;1.73;;;1.20;;
12383;SDS011;6256;63.808;20.336;2023-08-06T02:57:45;1.30;;;1.20;;
12383;SDS011;6256;63.808;20.336;2023-08-06T03:00:11;3.43;;;1.80;;
12383;SDS011;6256;63.808;20.336;2023-08-06T03:02:37;2.63;;;1.67;;
12383;SDS011;6256;63.808;20.336;2023-08-06T03:05:03;1.63;;;1.40;;
12383;SDS011;6256;63.808;20.336;2023-08-06T03:07:29;1.60;;;1.50;;
12383;SDS011;6256;63.808;20.336;2023-08-06T03:09:55;1.40;;;1.30;;
12383;SDS011;6256;63.808;20.336;2023-08-06T03:12:20;4.77;;;1.97;;
12383;SDS011;6256;63.808;20.336;2023-08-06T03:14:46;2.27;;;1.53;;
12383;SDS011;6256;63.808;20.336;2023-08-06T03:17:12;2.17;;;1.40;;
12383;SDS011;6256;63.808;20.336;2023-08-06T03:19:38;1.33;;;1.23;;
12383;SDS011;6256;63.808;20.336;2023-08-06T03:22:03;1.43;;;1.30;;
12383;SDS011;6256;63.808;20.336;2023-08-06T03:24:29;1.93;;;1.30;;
12383;SDS011;6256;63.808;20.336;2023-08-06T03:26:55;2.00;;;1.43;;
12383;SDS011;6256;63.808;20.336;2023-08-06T03:29:21;1.50;;;1.33;;
12383;SDS011;6256;63.808;20.336;2023-08-06T03:31:47;2.20;;;1.50;;
12383;SDS011;6256;63.808;20.336;2023-08-06T03:34:13;1.70;;;1.43;;
12383;SDS011;6256;63.808;20.336;2023-08-06T03:36:38;2.10;;;1.43;;
12383;SDS011;6256;63.808;20.336;2023-08-06T03:39:04;2.23;;;1.53;;
12383;SDS011;6256;63.808;20.336;2023-08-06T03:41:30;2.50;;;1.50;;
12383;SDS011;6256;63.808;20.336;2023-08-06T03:43:55;2.20;;;1.70;;
12383;SDS011;6256;63.808;20.336;2023-08-06T03:46:21;1.27;;;1.17;;
12383;SDS011;6256;63.808;20.336;2023-08-06T03:48:47;2.50;;;1.33;;
12383;SDS011;6256;63.808;20.336;2023-08-06T03:51:12;3.50;;;1.40;;
12383;SDS011;6256;63.808;20.336;2023-08-06T03:53:38;2.23;;;1.50;;
12383;SDS011;6256;63.808;20.336;2023-08-06T03:56:04;1.87;;;1.50;;
12383;SDS011;6256;63.808;20.336;2023-08-06T03:58:29;2.87;;;1.60;;
12383;SDS011;6256;63.808;20.336;2023-08-06T04:00:59;4.10;;;1.50;;
12383;SDS011;6256;63.808;20.336;2023-08-06T04:03:25;1.50;;;1.40;;
12383;SDS011;6256;63.808;20.336;2023-08-06T04:05:51;1.73;;;1.60;;
12383;SDS011;6256;63.808;20.336;2023-08-06T04:08:17;1.50;;;1.40;;
12383;SDS011;6256;63.808;20.336;2023-08-06T04:10:43;1.50;;;1.40;;
12383;SDS011;6256;63.808;20.336;2023-08-06T04:13:09;2.30;;;1.57;;
12383;SDS011;6256;63.808;20.336;2023-08-06T04:15:34;1.47;;;1.37;;
12383;SDS011;6256;63.808;20.336;2023-08-06T04:18:00;2.67;;;1.50;;
12383;SDS011;6256;63.808;20.336;2023-08-06T04:20:26;2.47;;;1.53;;
12383;SDS011;6256;63.808;20.336;2023-08-06T04:22:54;3.03;;;1.20;;
12383;SDS011;6256;63.808;20.336;2023-08-06T04:25:20;1.43;;;1.27;;
12383;SDS011;6256;63.808;20.336;2023-08-06T04:27:46;1.80;;;1.33;;
12383;SDS011;6256;63.808;20.336;2023-08-06T04:30:12;2.70;;;1.50;;
12383;SDS011;6256;63.808;20.336;2023-08-06T04:32:38;2.60;;;2.00;;
12383;SDS011;6256;63.808;20.336;2023-08-06T04:35:04;1.47;;;1.33;;
12383;SDS011;6256;63.808;20.336;2023-08-06T04:37:31;1.83;;;1.50;;
12383;SDS011;6256;63.808;20.336;2023-08-06T04:39:56;1.57;;;1.33;;
12383;SDS011;6256;63.808;20.336;2023-08-06T04:42:22;1.87;;;1.50;;
12383;SDS011;6256;63.808;20.336;2023-08-06T04:44:48;3.00;;;1.50;;
12383;SDS011;6256;63.808;20.336;2023-08-06T04:47:14;2.17;;;1.60;;
12383;SDS011;6256;63.808;20.336;2023-08-06T04:49:40;2.20;;;1.83;;
12383;SDS011;6256;63.808;20.336;2023-08-06T04:52:06;2.00;;;1.67;;
12383;SDS011;6256;63.808;20.336;2023-08-06T04:54:32;1.50;;;1.40;;
12383;SDS011;6256;63.808;20.336;2023-08-06T04:56:57;2.13;;;1.52;;
12383;SDS011;6256;63.808;20.336;2023-08-06T04:59:23;2.67;;;1.70;;
12383;SDS011;6256;63.808;20.336;2023-08-06T05:01:49;1.75;;;1.48;;
12383;SDS011;6256;63.808;20.336;2023-08-06T05:04:14;2.25;;;1.60;;
12383;SDS011;6256;63.808;20.336;2023-08-06T05:06:40;2.30;;;1.75;;
12383;SDS011;6256;63.808;20.336;2023-08-06T05:09:06;1.58;;;1.48;;
12383;SDS011;6256;63.808;20.336;2023-08-06T05:11:32;2.00;;;1.70;;
12383;SDS011;6256;63.808;20.336;2023-08-06T05:13:57;1.50;;;1.33;;
12383;SDS011;6256;63.808;20.336;2023-08-06T05:16:24;1.95;;;1.20;;
12383;SDS011;6256;63.808;20.336;2023-08-06T05:18:49;1.73;;;1.20;;
12383;SDS011;6256;63.808;20.336;2023-08-06T05:21:15;1.60;;;1.50;;
12383;SDS011;6256;63.808;20.336;2023-08-06T05:23:41;2.05;;;1.48;;
12383;SDS011;6256;63.808;20.336;2023-08-06T05:26:07;1.50;;;1.40;;
12383;SDS011;6256;63.808;20.336;2023-08-06T05:28:34;1.63;;;1.48;;
12383;SDS011;6256;63.808;20.336;2023-08-06T05:31:02;1.48;;;1.38;;
12383;SDS011;6256;63.808;20.336;2023-08-06T05:33:29;2.00;;;1.30;;
12383;SDS011;6256;63.808;20.336;2023-08-06T05:35:55;2.22;;;1.70;;
12383;SDS011;6256;63.808;20.336;2023-08-06T05:38:21;1.75;;;1.38;;
12383;SDS011;6256;63.808;20.336;2023-08-06T05:40:47;1.98;;;1.77;;
12383;SDS011;6256;63.808;20.336;2023-08-06T05:43:14;2.58;;;1.70;;
12383;SDS011;6256;63.808;20.336;2023-08-06T05:45:39;1.33;;;1.23;;
12383;SDS011;6256;63.808;20.336;2023-08-06T05:48:10;1.60;;;1.30;;
12383;SDS011;6256;63.808;20.336;2023-08-06T05:50:35;2.88;;;1.80;;
12383;SDS011;6256;63.808;20.336;2023-08-06T05:53:01;1.55;;;1.42;;
12383;SDS011;6256;63.808;20.336;2023-08-06T05:55:27;3.10;;;1.73;;
12383;SDS011;6256;63.808;20.336;2023-08-06T05:57:53;1.77;;;1.27;;
12383;SDS011;6256;63.808;20.336;2023-08-06T06:00:19;1.52;;;1.27;;
12383;SDS011;6256;63.808;20.336;2023-08-06T06:02:45;1.55;;;1.30;;
12383;SDS011;6256;63.808;20.336;2023-08-06T06:05:11;1.48;;;1.27;;
12383;SDS011;6256;63.808;20.336;2023-08-06T06:07:36;1.38;;;1.20;;
12383;SDS011;6256;63.808;20.336;2023-08-06T06:10:02;1.48;;;1.38;;
12383;SDS011;6256;63.808;20.336;2023-08-06T06:12:28;1.35;;;1.13;;
12383;SDS011;6256;63.808;20.336;2023-08-06T06:14:54;1.33;;;1.20;;
12383;SDS011;6256;63.808;20.336;2023-08-06T06:17:19;1.48;;;1.20;;
12383;SDS011;6256;63.808;20.336;2023-08-06T06:19:45;1.83;;;1.27;;
12383;SDS011;6256;63.808;20.336;2023-08-06T06:22:11;1.45;;;1.33;;
12383;SDS011;6256;63.808;20.336;2023-08-06T06:24:37;1.40;;;1.30;;
12383;SDS011;6256;63.808;20.336;2023-08-06T06:27:03;1.70;;;1.25;;
12383;SDS011;6256;63.808;20.336;2023-08-06T06:29:29;1.88;;;1.38;;
12383;SDS011;6256;63.808;20.336;2023-08-06T06:31:55;1.55;;;1.23;;
12383;SDS011;6256;63.808;20.336;2023-08-06T06:34:20;2.40;;;1.38;;
12383;SDS011;6256;63.808;20.336;2023-08-06T06:36:47;1.30;;;1.20;;
12383;SDS011;6256;63.808;20.336;2023-08-06T06:39:13;1.45;;;1.30;;
12383;SDS011;6256;63.808;20.336;2023-08-06T06:41:38;1.25;;;1.15;;
12383;SDS011;6256;63.808;20.336;2023-08-06T06:44:05;1.52;;;1.40;;
12383;SDS011;6256;63.808;20.336;2023-08-06T06:46:31;1.55;;;1.10;;
12383;SDS011;6256;63.808;20.336;2023-08-06T06:48:56;1.13;;;1.02;;
12383;SDS011;6256;63.808;20.336;2023-08-06T06:51:22;0.98;;;0.90;;
12383;SDS011;6256;63.808;20.336;2023-08-06T06:53:48;1.88;;;1.30;;
12383;SDS011;6256;63.808;20.336;2023-08-06T06:56:13;1.17;;;1.00;;
12383;SDS011;6256;63.808;20.336;2023-08-06T06:58:39;0.85;;;0.80;;
12383;SDS011;6256;63.808;20.336;2023-08-06T07:01:06;1.25;;;1.02;;
12383;SDS011;6256;63.808;20.336;2023-08-06T07:03:32;0.80;;;0.80;;
12383;SDS011;6256;63.808;20.336;2023-08-06T07:05:58;0.80;;;0.80;;
12383;SDS011;6256;63.808;20.336;2023-08-06T07:08:24;1.17;;;1.08;;
12383;SDS011;6256;63.808;20.336;2023-08-06T07:10:50;0.93;;;0.82;;
12383;SDS011;6256;63.808;20.336;2023-08-06T07:13:16;1.27;;;0.93;;
12383;SDS011;6256;63.808;20.336;2023-08-06T07:15:42;1.17;;;0.77;;
12383;SDS011;6256;63.808;20.336;2023-08-06T07:18:07;2.22;;;1.10;;
12383;SDS011;6256;63.808;20.336;2023-08-06T07:20:33;1.00;;;0.90;;
12383;SDS011;6256;63.808;20.336;2023-08-06T07:23:00;0.85;;;0.80;;
12383;SDS011;6256;63.808;20.336;2023-08-06T07:25:26;1.67;;;0.98;;
12383;SDS011;6256;63.808;20.336;2023-08-06T07:27:51;0.80;;;0.80;;
12383;SDS011;6256;63.808;20.336;2023-08-06T07:30:17;1.05;;;0.88;;
12383;SDS011;6256;63.808;20.336;2023-08-06T07:32:43;2.70;;;0.90;;
12383;SDS011;6256;63.808;20.336;2023-08-06T07:35:09;1.33;;;0.85;;
12383;SDS011;6256;63.808;20.336;2023-08-06T07:37:38;0.43;;;0.40;;
12383;SDS011;6256;63.808;20.336;2023-08-06T07:40:04;0.60;;;0.60;;
12383;SDS011;6256;63.808;20.336;2023-08-06T07:42:30;1.00;;;0.70;;
12383;SDS011;6256;63.808;20.336;2023-08-06T07:44:57;0.60;;;0.50;;
12383;SDS011;6256;63.808;20.336;2023-08-06T07:47:23;0.73;;;0.60;;
12383;SDS011;6256;63.808;20.336;2023-08-06T07:49:49;0.70;;;0.70;;
12383;SDS011;6256;63.808;20.336;2023-08-06T07:52:15;0.60;;;0.60;;
12383;SDS011;6256;63.808;20.336;2023-08-06T07:54:41;0.47;;;0.47;;
12383;SDS011;6256;63.808;20.336;2023-08-06T07:57:07;0.50;;;0.50;;
12383;SDS011;6256;63.808;20.336;2023-08-06T07:59:32;0.45;;;0.45;;
12383;SDS011;6256;63.808;20.336;2023-08-06T08:01:58;0.40;;;0.40;;
12383;SDS011;6256;63.808;20.336;2023-08-06T08:04:24;0.38;;;0.38;;
12383;SDS011;6256;63.808;20.336;2023-08-06T08:06:50;2.28;;;0.60;;
12383;SDS011;6256;63.808;20.336;2023-08-06T08:09:16;0.70;;;0.45;;
12383;SDS011;6256;63.808;20.336;2023-08-06T08:11:42;0.50;;;0.50;;
12383;SDS011;6256;63.808;20.336;2023-08-06T08:14:07;1.33;;;0.63;;
12383;SDS011;6256;63.808;20.336;2023-08-06T08:16:33;0.60;;;0.60;;
12383;SDS011;6256;63.808;20.336;2023-08-06T08:18:59;0.40;;;0.40;;
12383;SDS011;6256;63.808;20.336;2023-08-06T08:21:25;0.50;;;0.50;;
12383;SDS011;6256;63.808;20.336;2023-08-06T08:23:51;0.50;;;0.43;;
12383;SDS011;6256;63.808;20.336;2023-08-06T08:26:17;0.47;;;0.47;;
12383;SDS011;6256;63.808;20.336;2023-08-06T08:28:43;0.40;;;0.40;;
12383;SDS011;6256;63.808;20.336;2023-08-06T08:31:09;0.57;;;0.40;;
12383;SDS011;6256;63.808;20.336;2023-08-06T08:33:36;0.38;;;0.38;;
12383;SDS011;6256;63.808;20.336;2023-08-06T08:36:03;0.40;;;0.40;;
12383;SDS011;6256;63.808;20.336;2023-08-06T08:38:29;0.45;;;0.45;;
12383;SDS011;6256;63.808;20.336;2023-08-06T08:40:54;0.50;;;0.50;;
12383;SDS011;6256;63.808;20.336;2023-08-06T08:43:23;0.50;;;0.50;;
12383;SDS011;6256;63.808;20.336;2023-08-06T08:45:50;0.40;;;0.40;;
12383;SDS011;6256;63.808;20.336;2023-08-06T08:48:17;0.30;;;0.30;;
12383;SDS011;6256;63.808;20.336;2023-08-06T08:50:44;0.47;;;0.47;;
12383;SDS011;6256;63.808;20.336;2023-08-06T08:53:11;1.02;;;0.30;;
12383;SDS011;6256;63.808;20.336;2023-08-06T08:55:39;0.32;;;0.30;;
12383;SDS011;6256;63.808;20.336;2023-08-06T08:58:05;0.30;;;0.30;;
12383;SDS011;6256;63.808;20.336;2023-08-06T09:00:31;0.40;;;0.40;;
12383;SDS011;6256;63.808;20.336;2023-08-06T09:02:57;0.57;;;0.47;;
12383;SDS011;6256;63.808;20.336;2023-08-06T09:05:24;0.50;;;0.50;;
12383;SDS011;6256;63.808;20.336;2023-08-06T09:07:55;0.98;;;0.40;;
12383;SDS011;6256;63.808;20.336;2023-08-06T09:10:24;0.35;;;0.35;;
12383;SDS011;6256;63.808;20.336;2023-08-06T09:12:51;0.47;;;0.40;;
12383;SDS011;6256;63.808;20.336;2023-08-06T09:15:18;1.00;;;0.30;;
12383;SDS011;6256;63.808;20.336;2023-08-06T09:17:45;0.30;;;0.30;;
12383;SDS011;6256;63.808;20.336;2023-08-06T09:20:14;0.55;;;0.35;;
12383;SDS011;6256;63.808;20.336;2023-08-06T09:22:40;0.20;;;0.20;;
12383;SDS011;6256;63.808;20.336;2023-08-06T09:25:06;0.15;;;0.15;;
12383;SDS011;6256;63.808;20.336;2023-08-06T09:27:39;0.25;;;0.25;;
12383;SDS011;6256;63.808;20.336;2023-08-06T09:30:05;0.20;;;0.20;;
12383;SDS011;6256;63.808;20.336;2023-08-06T09:32:45;0.20;;;0.20;;
12383;SDS011;6256;63.808;20.336;2023-08-06T09:35:21;0.20;;;0.20;;
12383;SDS011;6256;63.808;20.336;2023-08-06T09:37:47;0.30;;;0.30;;
12383;SDS011;6256;63.808;20.336;2023-08-06T09:40:26;0.30;;;0.30;;
12383;SDS011;6256;63.808;20.336;2023-08-06T09:42:55;0.20;;;0.20;;
12383;SDS011;6256;63.808;20.336;2023-08-06T09:45:21;0.30;;;0.30;;
12383;SDS011;6256;63.808;20.336;2023-08-06T09:47:58;0.60;;;0.28;;
12383;SDS011;6256;63.808;20.336;2023-08-06T09:50:28;0.40;;;0.30;;
12383;SDS011;6256;63.808;20.336;2023-08-06T09:52:59;0.32;;;0.32;;
12383;SDS011;6256;63.808;20.336;2023-08-06T09:55:25;0.30;;;0.30;;
12383;SDS011;6256;63.808;20.336;2023-08-06T09:57:52;0.30;;;0.20;;
12383;SDS011;6256;63.808;20.336;2023-08-06T10:00:18;0.20;;;0.20;;
12383;SDS011;6256;63.808;20.336;2023-08-06T10:02:47;0.30;;;0.30;;
12383;SDS011;6256;63.808;20.336;2023-08-06T10:05:20;0.35;;;0.30;;
12383;SDS011;6256;63.808;20.336;2023-08-06T10:07:47;0.55;;;0.35;;
12383;SDS011;6256;63.808;20.336;2023-08-06T10:10:15;0.30;;;0.30;;
12383;SDS011;6256;63.808;20.336;2023-08-06T10:12:44;0.20;;;0.20;;
12383;SDS011;6256;63.808;20.336;2023-08-06T10:15:16;0.30;;;0.30;;
12383;SDS011;6256;63.808;20.336;2023-08-06T10:17:47;0.30;;;0.30;;
12383;SDS011;6256;63.808;20.336;2023-08-06T10:20:16;0.30;;;0.30;;
12383;SDS011;6256;63.808;20.336;2023-08-06T10:22:42;0.30;;;0.30;;
12383;SDS011;6256;63.808;20.336;2023-08-06T10:25:09;0.20;;;0.20;;
12383;SDS011;6256;63.808;20.336;2023-08-06T10:30:23;0.55;;;0.55;;
12383;SDS011;6256;63.808;20.336;2023-08-06T10:32:51;0.20;;;0.20;;
12383;SDS011;6256;63.808;20.336;2023-08-06T10:35:29;0.50;;;0.50;;
12383;SDS011;6256;63.808;20.336;2023-08-06T10:37:57;0.43;;;0.43;;
12383;SDS011;6256;63.808;20.336;2023-08-06T10:40:34;0.30;;;0.30;;
12383;SDS011;6256;63.808;20.336;2023-08-06T10:43:00;0.43;;;0.43;;
12383;SDS011;6256;63.808;20.336;2023-08-06T10:45:27;0.77;;;0.38;;
12383;SDS011;6256;63.808;20.336;2023-08-06T10:47:56;0.30;;;0.30;;
12383;SDS011;6256;63.808;20.336;2023-08-06T10:50:23;0.30;;;0.20;;
12383;SDS011;6256;63.808;20.336;2023-08-06T10:52:49;0.40;;;0.40;;
12383;SDS011;6256;63.808;20.336;2023-08-06T10:55:28;0.30;;;0.30;;
12383;SDS011;6256;63.808;20.336;2023-08-06T10:57:54;0.30;;;0.30;;
12383;SDS011;6256;63.808;20.336;2023-08-06T11:00:21;1.45;;;0.52;;
12383;SDS011;6256;63.808;20.336;2023-08-06T11:02:49;0.50;;;0.50;;
12383;SDS011;6256;63.808;20.336;2023-08-06T11:05:16;0.40;;;0.40;;
12383;SDS011;6256;63.808;20.336;2023-08-06T11:07:42;0.45;;;0.45;;
12383;SDS011;6256;63.808;20.336;2023-08-06T11:10:09;0.60;;;0.60;;
12383;SDS011;6256;63.808;20.336;2023-08-06T11:12:38;0.40;;;0.40;;
12383;SDS011;6256;63.808;20.336;2023-08-06T11:15:04;0.47;;;0.47;;
12383;SDS011;6256;63.808;20.336;2023-08-06T11:17:31;1.92;;;0.80;;
12383;SDS011;6256;63.808;20.336;2023-08-06T11:20:01;0.57;;;0.57;;
12383;SDS011;6256;63.808;20.336;2023-08-06T11:22:30;1.02;;;0.60;;
12383;SDS011;6256;63.808;20.336;2023-08-06T11:24:56;0.73;;;0.73;;
12383;SDS011;6256;63.808;20.336;2023-08-06T11:27:22;1.15;;;0.68;;
12383;SDS011;6256;63.808;20.336;2023-08-06T11:29:50;1.92;;;0.70;;
12383;SDS011;6256;63.808;20.336;2023-08-06T11:32:16;1.63;;;0.77;;
12383;SDS011;6256;63.808;20.336;2023-08-06T11:34:42;0.60;;;0.60;;
12383;SDS011;6256;63.808;20.336;2023-08-06T11:37:09;0.73;;;0.73;;
12383;SDS011;6256;63.808;20.336;2023-08-06T11:39:36;1.63;;;0.90;;
12383;SDS011;6256;63.808;20.336;2023-08-06T11:42:05;0.90;;;0.90;;
12383;SDS011;6256;63.808;20.336;2023-08-06T11:44:33;0.90;;;0.90;;
12383;SDS011;6256;63.808;20.336;2023-08-06T11:47:01;0.73;;;0.73;;
12383;SDS011;6256;63.808;20.336;2023-08-06T11:52:24;1.33;;;1.00;;
12383;SDS011;6256;63.808;20.336;2023-08-06T11:57:33;0.80;;;0.80;;
12383;SDS011;6256;63.808;20.336;2023-08-06T12:00:10;1.80;;;1.10;;
12383;SDS011;6256;63.808;20.336;2023-08-06T12:02:40;1.40;;;1.30;;
12383;SDS011;6256;63.808;20.336;2023-08-06T12:05:10;1.00;;;0.88;;
12383;SDS011;6256;63.808;20.336;2023-08-06T12:07:59;1.27;;;0.85;;
12383;SDS011;6256;63.808;20.336;2023-08-06T12:10:26;1.23;;;1.13;;
12383;SDS011;6256;63.808;20.336;2023-08-06T12:12:54;1.88;;;1.20;;
12383;SDS011;6256;63.808;20.336;2023-08-06T12:15:22;1.38;;;1.10;;
12383;SDS011;6256;63.808;20.336;2023-08-06T12:17:49;1.27;;;1.17;;
12383;SDS011;6256;63.808;20.336;2023-08-06T12:20:15;2.35;;;1.20;;
12383;SDS011;6256;63.808;20.336;2023-08-06T12:22:40;1.85;;;1.27;;
12383;SDS011;6256;63.808;20.336;2023-08-06T12:25:11;1.40;;;1.30;;
12383;SDS011;6256;63.808;20.336;2023-08-06T12:27:37;1.58;;;1.40;;
12383;SDS011;6256;63.808;20.336;2023-08-06T12:30:05;1.05;;;1.05;;
12383;SDS011;6256;63.808;20.336;2023-08-06T12:32:31;1.33;;;1.00;;
12383;SDS011;6256;63.808;20.336;2023-08-06T12:34:58;1.65;;;1.38;;
12383;SDS011;6256;63.808;20.336;2023-08-06T12:37:25;1.30;;;1.20;;
12383;SDS011;6256;63.808;20.336;2023-08-06T12:39:52;1.35;;;1.25;;
12383;SDS011;6256;63.808;20.336;2023-08-06T12:42:17;2.40;;;1.20;;
12383;SDS011;6256;63.808;20.336;2023-08-06T12:44:43;2.28;;;1.05;;
12383;SDS011;6256;63.808;20.336;2023-08-06T12:47:09;2.95;;;1.33;;
12383;SDS011;6256;63.808;20.336;2023-08-06T12:49:35;1.70;;;1.30;;
12383;SDS011;6256;63.808;20.336;2023-08-06T12:52:01;1.55;;;1.20;;
12383;SDS011;6256;63.808;20.336;2023-08-06T12:54:27;1.10;;;1.00;;
12383;SDS011;6256;63.808;20.336;2023-08-06T12:56:53;1.13;;;1.13;;
12383;SDS011;6256;63.808;20.336;2023-08-06T12:59:19;1.30;;;1.15;;
12383;SDS011;6256;63.808;20.336;2023-08-06T13:01:45;1.30;;;1.20;;
12383;SDS011;6256;63.808;20.336;2023-08-06T13:04:11;1.73;;;1.10;;
12383;SDS011;6256;63.808;20.336;2023-08-06T13:06:37;1.20;;;1.10;;
12383;SDS011;6256;63.808;20.336;2023-08-06T13:09:08;1.20;;;1.10;;
12383;SDS011;6256;63.808;20.336;2023-08-06T13:11:35;1.40;;;1.30;;
12383;SDS011;6256;63.808;20.336;2023-08-06T13:14:09;1.70;;;0.90;;
12383;SDS011;6256;63.808;20.336;2023-08-06T13:16:36;1.73;;;1.00;;
12383;SDS011;6256;63.808;20.336;2023-08-06T13:19:04;1.02;;;1.00;;
12383;SDS011;6256;63.808;20.336;2023-08-06T13:21:32;1.10;;;1.00;;
12383;SDS011;6256;63.808;20.336;2023-08-06T13:24:00;1.98;;;1.05;;
12383;SDS011;6256;63.808;20.336;2023-08-06T13:26:27;1.30;;;1.20;;
12383;SDS011;6256;63.808;20.336;2023-08-06T13:28:53;1.33;;;1.23;;
12383;SDS011;6256;63.808;20.336;2023-08-06T13:31:19;1.40;;;1.30;;
12383;SDS011;6256;63.808;20.336;2023-08-06T13:33:45;1.13;;;1.10;;
12383;SDS011;6256;63.808;20.336;2023-08-06T13:36:13;1.00;;;1.00;;
12383;SDS011;6256;63.808;20.336;2023-08-06T13:38:39;1.92;;;1.08;;
12383;SDS011;6256;63.808;20.336;2023-08-06T13:41:04;0.95;;;0.95;;
12383;SDS011;6256;63.808;20.336;2023-08-06T13:43:31;1.00;;;0.90;;
12383;SDS011;6256;63.808;20.336;2023-08-06T13:45:56;1.42;;;1.33;;
12383;SDS011;6256;63.808;20.336;2023-08-06T13:48:22;1.00;;;0.90;;
12383;SDS011;6256;63.808;20.336;2023-08-06T13:50:48;2.72;;;1.17;;
12383;SDS011;6256;63.808;20.336;2023-08-06T13:53:13;2.88;;;1.60;;
12383;SDS011;6256;63.808;20.336;2023-08-06T13:55:39;1.23;;;1.00;;
12383;SDS011;6256;63.808;20.336;2023-08-06T13:58:05;1.15;;;1.05;;
12383;SDS011;6256;63.808;20.336;2023-08-06T14:00:30;1.80;;;1.00;;
12383;SDS011;6256;63.808;20.336;2023-08-06T14:02:56;0.93;;;0.93;;
12383;SDS011;6256;63.808;20.336;2023-08-06T14:05:22;1.15;;;1.05;;
12383;SDS011;6256;63.808;20.336;2023-08-06T14:07:47;1.70;;;0.98;;
12383;SDS011;6256;63.808;20.336;2023-08-06T14:10:13;46.22;;;43.22;;
12383;SDS011;6256;63.808;20.336;2023-08-06T14:12:39;53.78;;;49.63;;
12383;SDS011;6256;63.808;20.336;2023-08-06T14:15:05;3.40;;;3.15;;
12383;SDS011;6256;63.808;20.336;2023-08-06T14:17:31;3.20;;;3.00;;
12383;SDS011;6256;63.808;20.336;2023-08-06T14:19:57;1.55;;;1.45;;
12383;SDS011;6256;63.808;20.336;2023-08-06T14:22:24;1.40;;;0.77;;
12383;SDS011;6256;63.808;20.336;2023-08-06T14:24:50;0.60;;;0.60;;
12383;SDS011;6256;63.808;20.336;2023-08-06T14:27:15;0.70;;;0.70;;
12383;SDS011;6256;63.808;20.336;2023-08-06T14:29:41;1.20;;;0.80;;
12383;SDS011;6256;63.808;20.336;2023-08-06T14:32:07;1.17;;;0.82;;
12383;SDS011;6256;63.808;20.336;2023-08-06T14:34:32;0.70;;;0.70;;
12383;SDS011;6256;63.808;20.336;2023-08-06T14:36:58;0.63;;;0.63;;
12383;SDS011;6256;63.808;20.336;2023-08-06T14:39:24;3.17;;;2.97;;
12383;SDS011;6256;63.808;20.336;2023-08-06T14:41:50;2.40;;;1.67;;
12383;SDS011;6256;63.808;20.336;2023-08-06T14:44:16;30.73;;;28.40;;
12383;SDS011;6256;63.808;20.336;2023-08-06T14:46:42;80.43;;;71.13;;
12383;SDS011;6256;63.808;20.336;2023-08-06T14:49:07;79.88;;;56.97;;
12383;SDS011;6256;63.808;20.336;2023-08-06T14:51:33;76.90;;;68.90;;
12383;SDS011;6256;63.808;20.336;2023-08-06T14:53:59;394.52;;;283.98;;
12383;SDS011;6256;63.808;20.336;2023-08-06T14:56:24;250.63;;;183.70;;